METAR Data
IDs: Format: Raw Decoded Include TAF

Data at: 0711 UTC 18 Sep 2021

LFLP 180700Z AUTO 00000KT CAVOK 14/12 Q1016 NOSIG